sensor_id;sensor_type;location;lat;lon;timestamp;pressure;altitude;pressure_sealevel;temperature;humidity
65760;BME280;52496;51.082;5.066;2022-11-03T00:02:29;101385.41;;;11.56;89.44
65760;BME280;52496;51.082;5.066;2022-11-03T00:05:00;101387.09;;;11.57;89.40
65760;BME280;52496;51.082;5.066;2022-11-03T00:07:51;101380.72;;;11.58;89.40
65760;BME280;52496;51.082;5.066;2022-11-03T00:10:21;101383.03;;;11.61;89.16
65760;BME280;52496;51.082;5.066;2022-11-03T00:12:52;101377.69;;;11.61;89.39
65760;BME280;52496;51.082;5.066;2022-11-03T00:15:23;101377.69;;;11.61;89.57
65760;BME280;52496;51.082;5.066;2022-11-03T00:17:53;101376.66;;;11.62;89.53
65760;BME280;52496;51.082;5.066;2022-11-03T00:20:24;101373.97;;;11.62;89.55
65760;BME280;52496;51.082;5.066;2022-11-03T00:22:54;101372.13;;;11.62;89.50
65760;BME280;52496;51.082;5.066;2022-11-03T00:25:25;101360.59;;;11.62;89.41
65760;BME280;52496;51.082;5.066;2022-11-03T00:27:55;101361.59;;;11.61;89.44
65760;BME280;52496;51.082;5.066;2022-11-03T00:30:26;101354.25;;;11.63;89.38
65760;BME280;52496;51.082;5.066;2022-11-03T00:32:57;101346.84;;;11.65;89.37
65760;BME280;52496;51.082;5.066;2022-11-03T00:35:27;101343.16;;;11.66;89.18
65760;BME280;52496;51.082;5.066;2022-11-03T00:37:58;101343.16;;;11.66;89.23
65760;BME280;52496;51.082;5.066;2022-11-03T00:40:28;101343.16;;;11.66;89.30
65760;BME280;52496;51.082;5.066;2022-11-03T00:42:59;101339.47;;;11.67;89.53
65760;BME280;52496;51.082;5.066;2022-11-03T00:45:30;101338.63;;;11.66;89.47
65760;BME280;52496;51.082;5.066;2022-11-03T00:48:00;101327.09;;;11.66;89.56
65760;BME280;52496;51.082;5.066;2022-11-03T00:50:49;101330.75;;;11.65;89.42
65760;BME280;52496;51.082;5.066;2022-11-03T00:53:23;101326.22;;;11.65;89.79
65760;BME280;52496;51.082;5.066;2022-11-03T00:55:53;101327.09;;;11.66;89.41
65760;BME280;52496;51.082;5.066;2022-11-03T00:58:24;101325.03;;;11.68;89.29
65760;BME280;52496;51.082;5.066;2022-11-03T01:01:04;101315.34;;;11.67;89.05
65760;BME280;52496;51.082;5.066;2022-11-03T01:03:37;101307.47;;;11.65;89.23
65760;BME280;52496;51.082;5.066;2022-11-03T01:06:10;101305.81;;;11.64;89.39
65760;BME280;52496;51.082;5.066;2022-11-03T01:09:00;101306.19;;;11.61;89.61
65760;BME280;52496;51.082;5.066;2022-11-03T01:11:30;101302.66;;;11.61;89.63
65760;BME280;52496;51.082;5.066;2022-11-03T01:14:14;101289.44;;;11.59;89.91
65760;BME280;52496;51.082;5.066;2022-11-03T01:16:45;101292.31;;;11.58;89.84
65760;BME280;52496;51.082;5.066;2022-11-03T01:19:15;101283.63;;;11.56;89.92
65760;BME280;52496;51.082;5.066;2022-11-03T01:21:46;101281.13;;;11.54;90.23
65760;BME280;52496;51.082;5.066;2022-11-03T01:24:16;101287.50;;;11.53;90.41
65760;BME280;52496;51.082;5.066;2022-11-03T01:26:47;101283.34;;;11.51;90.35
65760;BME280;52496;51.082;5.066;2022-11-03T01:29:17;101280.00;;;11.48;90.87
65760;BME280;52496;51.082;5.066;2022-11-03T01:31:48;101264.97;;;11.47;90.64
65760;BME280;52496;51.082;5.066;2022-11-03T01:34:20;101271.16;;;11.48;90.92
65760;BME280;52496;51.082;5.066;2022-11-03T01:36:50;101263.28;;;11.46;90.85
65760;BME280;52496;51.082;5.066;2022-11-03T01:39:21;101257.91;;;11.46;90.81
65760;BME280;52496;51.082;5.066;2022-11-03T01:41:52;101257.91;;;11.46;90.92
65760;BME280;52496;51.082;5.066;2022-11-03T01:44:28;101254.25;;;11.47;90.70
65760;BME280;52496;51.082;5.066;2022-11-03T01:50:07;101240.84;;;11.47;90.90
65760;BME280;52496;51.082;5.066;2022-11-03T01:52:42;101247.19;;;11.46;91.44
65760;BME280;52496;51.082;5.066;2022-11-03T01:55:20;101238.53;;;11.44;91.11
65760;BME280;52496;51.082;5.066;2022-11-03T01:57:56;101238.53;;;11.44;91.12
65760;BME280;52496;51.082;5.066;2022-11-03T02:00:28;101243.91;;;11.44;91.15
65760;BME280;52496;51.082;5.066;2022-11-03T02:02:59;101235.84;;;11.44;91.44
65760;BME280;52496;51.082;5.066;2022-11-03T02:05:30;101234.84;;;11.45;91.34
65760;BME280;52496;51.082;5.066;2022-11-03T02:08:07;101227.81;;;11.44;91.75
65760;BME280;52496;51.082;5.066;2022-11-03T02:10:38;101225.16;;;11.44;91.83
65760;BME280;52496;51.082;5.066;2022-11-03T02:13:22;101224.28;;;11.44;91.85
65760;BME280;52496;51.082;5.066;2022-11-03T02:15:56;101219.13;;;11.42;91.98
65760;BME280;52496;51.082;5.066;2022-11-03T02:18:30;101224.50;;;11.42;92.47
65760;BME280;52496;51.082;5.066;2022-11-03T02:21:26;101220.16;;;11.41;92.41
65760;BME280;52496;51.082;5.066;2022-11-03T02:24:01;101217.47;;;11.41;92.74
65760;BME280;52496;51.082;5.066;2022-11-03T02:26:34;101219.50;;;11.39;92.30
65760;BME280;52496;51.082;5.066;2022-11-03T02:29:05;101212.47;;;11.38;92.46
65760;BME280;52496;51.082;5.066;2022-11-03T02:31:42;101201.78;;;11.38;92.37
65760;BME280;52496;51.082;5.066;2022-11-03T02:37:32;101190.50;;;11.43;92.40
65760;BME280;52496;51.082;5.066;2022-11-03T02:40:12;101188.47;;;11.45;92.71
65760;BME280;52496;51.082;5.066;2022-11-03T02:42:46;101183.13;;;11.45;92.55
65760;BME280;52496;51.082;5.066;2022-11-03T02:45:20;101171.59;;;11.44;92.68
65760;BME280;52496;51.082;5.066;2022-11-03T02:47:54;101176.94;;;11.44;92.69
65760;BME280;52496;51.082;5.066;2022-11-03T02:50:29;101166.50;;;11.49;92.75
65760;BME280;52496;51.082;5.066;2022-11-03T02:53:00;101162.81;;;11.51;92.80
65760;BME280;52496;51.082;5.066;2022-11-03T03:01:18;101152.56;;;11.54;92.64
65760;BME280;52496;51.082;5.066;2022-11-03T03:03:57;101141.66;;;11.56;92.68
65760;BME280;52496;51.082;5.066;2022-11-03T03:06:37;101148.88;;;11.55;93.02
65760;BME280;52496;51.082;5.066;2022-11-03T03:09:14;101146.84;;;11.57;92.71
65760;BME280;52496;51.082;5.066;2022-11-03T03:11:50;101135.31;;;11.57;92.91
65760;BME280;52496;51.082;5.066;2022-11-03T03:14:31;101134.44;;;11.56;92.81
65760;BME280;52496;51.082;5.066;2022-11-03T03:19:56;101117.28;;;11.51;93.50
65760;BME280;52496;51.082;5.066;2022-11-03T03:25:38;101121.34;;;11.46;93.73
65760;BME280;52496;51.082;5.066;2022-11-03T03:28:18;101124.00;;;11.46;93.93
65760;BME280;52496;51.082;5.066;2022-11-03T03:30:51;101123.00;;;11.47;93.82
65760;BME280;52496;51.082;5.066;2022-11-03T03:33:24;101116.81;;;11.47;94.17
65760;BME280;52496;51.082;5.066;2022-11-03T03:36:00;101108.78;;;11.47;94.20
65760;BME280;52496;51.082;5.066;2022-11-03T03:38:39;101106.94;;;11.47;94.40
65760;BME280;52496;51.082;5.066;2022-11-03T03:41:13;101099.75;;;11.48;94.43
65760;BME280;52496;51.082;5.066;2022-11-03T03:43:53;101104.06;;;11.49;94.50
65760;BME280;52496;51.082;5.066;2022-11-03T03:46:28;101098.72;;;11.49;95.14
65760;BME280;52496;51.082;5.066;2022-11-03T03:49:01;101098.91;;;11.47;95.11
65760;BME280;52496;51.082;5.066;2022-11-03T03:51:32;101094.38;;;11.48;95.01
65760;BME280;52496;51.082;5.066;2022-11-03T03:54:03;101105.94;;;11.48;95.23
65760;BME280;52496;51.082;5.066;2022-11-03T03:56:41;101093.56;;;11.47;95.66
65760;BME280;52496;51.082;5.066;2022-11-03T03:59:13;101088.19;;;11.47;95.35
65760;BME280;52496;51.082;5.066;2022-11-03T04:01:43;101084.50;;;11.48;95.77
65760;BME280;52496;51.082;5.066;2022-11-03T04:04:14;101076.47;;;11.48;95.93
65760;BME280;52496;51.082;5.066;2022-11-03T04:06:44;101072.75;;;11.49;95.94
65760;BME280;52496;51.082;5.066;2022-11-03T04:09:15;101077.50;;;11.47;96.26
65760;BME280;52496;51.082;5.066;2022-11-03T04:11:48;101070.28;;;11.48;96.53
65760;BME280;52496;51.082;5.066;2022-11-03T04:14:37;101073.78;;;11.48;96.78
65760;BME280;52496;51.082;5.066;2022-11-03T04:17:26;101057.72;;;11.48;96.91
65760;BME280;52496;51.082;5.066;2022-11-03T04:20:15;101059.75;;;11.46;97.16
65760;BME280;52496;51.082;5.066;2022-11-03T04:23:04;101054.38;;;11.46;97.17
65760;BME280;52496;51.082;5.066;2022-11-03T04:25:35;101052.38;;;11.48;97.20
65760;BME280;52496;51.082;5.066;2022-11-03T04:28:12;101052.81;;;11.52;97.50
65760;BME280;52496;51.082;5.066;2022-11-03T04:30:43;101051.16;;;11.51;97.44
65760;BME280;52496;51.082;5.066;2022-11-03T04:33:16;101044.97;;;11.51;97.61
65760;BME280;52496;51.082;5.066;2022-11-03T04:35:47;101041.66;;;11.48;99.06
65760;BME280;52496;51.082;5.066;2022-11-03T04:38:22;101040.44;;;11.51;98.30
65760;BME280;52496;51.082;5.066;2022-11-03T04:40:57;101032.59;;;11.49;98.39
65760;BME280;52496;51.082;5.066;2022-11-03T04:43:35;101028.06;;;11.50;98.84
65760;BME280;52496;51.082;5.066;2022-11-03T04:46:10;101017.72;;;11.47;98.91
65760;BME280;52496;51.082;5.066;2022-11-03T04:48:41;101022.25;;;11.46;99.46
65760;BME280;52496;51.082;5.066;2022-11-03T04:51:20;101013.22;;;11.47;99.24
65760;BME280;52496;51.082;5.066;2022-11-03T04:53:54;101014.88;;;11.48;99.26
65760;BME280;52496;51.082;5.066;2022-11-03T04:56:24;101008.47;;;11.49;99.58
65760;BME280;52496;51.082;5.066;2022-11-03T04:58:56;100998.44;;;11.52;100.00
65760;BME280;52496;51.082;5.066;2022-11-03T05:01:27;101003.41;;;11.55;99.86
65760;BME280;52496;51.082;5.066;2022-11-03T05:03:58;101004.06;;;11.57;99.85
65760;BME280;52496;51.082;5.066;2022-11-03T05:06:28;101000.53;;;11.56;100.00
65760;BME280;52496;51.082;5.066;2022-11-03T05:09:03;100990.66;;;11.57;100.00
65760;BME280;52496;51.082;5.066;2022-11-03T05:11:43;100991.94;;;11.61;100.00
65760;BME280;52496;51.082;5.066;2022-11-03T05:14:25;100992.59;;;11.63;100.00
65760;BME280;52496;51.082;5.066;2022-11-03T05:16:56;100979.22;;;11.63;100.00
65760;BME280;52496;51.082;5.066;2022-11-03T05:19:38;100984.19;;;11.66;100.00
65760;BME280;52496;51.082;5.066;2022-11-03T05:22:15;100980.94;;;11.70;100.00
65760;BME280;52496;51.082;5.066;2022-11-03T05:24:56;100981.38;;;11.74;100.00
65760;BME280;52496;51.082;5.066;2022-11-03T05:27:27;100976.50;;;11.78;100.00
65760;BME280;52496;51.082;5.066;2022-11-03T05:29:58;100960.03;;;11.81;100.00
65760;BME280;52496;51.082;5.066;2022-11-03T05:32:32;100966.03;;;11.83;100.00
65760;BME280;52496;51.082;5.066;2022-11-03T05:35:11;100964.84;;;11.85;100.00
65760;BME280;52496;51.082;5.066;2022-11-03T05:37:49;100953.97;;;11.87;100.00
65760;BME280;52496;51.082;5.066;2022-11-03T05:40:22;100945.06;;;11.86;99.80
65760;BME280;52496;51.082;5.066;2022-11-03T05:42:58;100940.56;;;11.87;99.75
65760;BME280;52496;51.082;5.066;2022-11-03T05:48:25;100919.56;;;11.90;99.44
65760;BME280;52496;51.082;5.066;2022-11-03T05:50:57;100924.91;;;11.90;99.45
65760;BME280;52496;51.082;5.066;2022-11-03T05:53:31;100916.06;;;11.90;99.44
65760;BME280;52496;51.082;5.066;2022-11-03T05:56:12;100912.72;;;11.88;99.77
65760;BME280;52496;51.082;5.066;2022-11-03T05:58:48;100909.22;;;11.87;99.98
65760;BME280;52496;51.082;5.066;2022-11-03T06:01:28;100899.50;;;11.86;99.96
65760;BME280;52496;51.082;5.066;2022-11-03T06:04:05;100897.84;;;11.85;99.83
65760;BME280;52496;51.082;5.066;2022-11-03T06:06:41;100881.78;;;11.85;100.00
65760;BME280;52496;51.082;5.066;2022-11-03T06:09:18;100878.06;;;11.86;99.69
65760;BME280;52496;51.082;5.066;2022-11-03T06:11:52;100879.53;;;11.89;99.68
65760;BME280;52496;51.082;5.066;2022-11-03T06:14:24;100876.69;;;11.90;99.58
65760;BME280;52496;51.082;5.066;2022-11-03T06:17:03;100879.16;;;11.92;99.37
65760;BME280;52496;51.082;5.066;2022-11-03T06:19:40;100873.63;;;11.93;99.25
65760;BME280;52496;51.082;5.066;2022-11-03T06:22:15;100870.94;;;11.93;99.27
65760;BME280;52496;51.082;5.066;2022-11-03T06:24:48;100868.88;;;11.96;98.88
65760;BME280;52496;51.082;5.066;2022-11-03T06:27:25;100868.69;;;11.97;98.87
65760;BME280;52496;51.082;5.066;2022-11-03T06:30:31;100865.81;;;11.99;98.54
65760;BME280;52496;51.082;5.066;2022-11-03T06:32:57;100857.22;;;12.03;98.78
65760;BME280;52496;51.082;5.066;2022-11-03T06:35:28;100865.03;;;12.05;98.33
65760;BME280;52496;51.082;5.066;2022-11-03T06:37:58;100864.66;;;12.08;97.91
65760;BME280;52496;51.082;5.066;2022-11-03T06:40:36;100865.94;;;12.12;97.75
65760;BME280;52496;51.082;5.066;2022-11-03T06:43:15;100858.50;;;12.14;97.55
65760;BME280;52496;51.082;5.066;2022-11-03T06:45:55;100858.13;;;12.17;97.10
65760;BME280;52496;51.082;5.066;2022-11-03T06:48:28;100850.72;;;12.19;96.79
65760;BME280;52496;51.082;5.066;2022-11-03T06:50:59;100849.50;;;12.22;96.53
65760;BME280;52496;51.082;5.066;2022-11-03T06:53:31;100851.97;;;12.23;96.13
65760;BME280;52496;51.082;5.066;2022-11-03T06:56:11;100849.13;;;12.25;96.58
65760;BME280;52496;51.082;5.066;2022-11-03T06:58:45;100834.50;;;12.27;96.06
65760;BME280;52496;51.082;5.066;2022-11-03T07:01:21;100833.47;;;12.28;95.84
65760;BME280;52496;51.082;5.066;2022-11-03T07:03:56;100836.16;;;12.28;95.75
65760;BME280;52496;51.082;5.066;2022-11-03T07:06:34;100837.41;;;12.32;95.22
65760;BME280;52496;51.082;5.066;2022-11-03T07:09:21;100834.34;;;12.35;95.21
65760;BME280;52496;51.082;5.066;2022-11-03T07:11:57;100843.03;;;12.37;95.42
65760;BME280;52496;51.082;5.066;2022-11-03T07:14:31;100836.84;;;12.37;95.21
65760;BME280;52496;51.082;5.066;2022-11-03T07:17:04;100832.94;;;12.39;95.17
65760;BME280;52496;51.082;5.066;2022-11-03T07:19:39;100833.75;;;12.40;94.97
65760;BME280;52496;51.082;5.066;2022-11-03T07:22:18;100843.28;;;12.43;95.08
65760;BME280;52496;51.082;5.066;2022-11-03T07:24:56;100859.16;;;12.44;94.91
65760;BME280;52496;51.082;5.066;2022-11-03T07:27:30;100856.28;;;12.46;94.99
65760;BME280;52496;51.082;5.066;2022-11-03T07:30:29;100857.09;;;12.46;94.81
65760;BME280;52496;51.082;5.066;2022-11-03T07:33:08;100854.25;;;12.48;94.54
65760;BME280;52496;51.082;5.066;2022-11-03T07:35:40;100855.91;;;12.49;94.66
65760;BME280;52496;51.082;5.066;2022-11-03T07:38:17;100859.22;;;12.51;94.86
65760;BME280;52496;51.082;5.066;2022-11-03T07:40:50;100850.13;;;12.52;94.40
65760;BME280;52496;51.082;5.066;2022-11-03T07:43:30;100851.78;;;12.53;94.01
65760;BME280;52496;51.082;5.066;2022-11-03T07:46:03;100842.34;;;12.57;94.42
65760;BME280;52496;51.082;5.066;2022-11-03T07:48:44;100833.88;;;12.60;93.86
65760;BME280;52496;51.082;5.066;2022-11-03T07:51:42;100823.38;;;12.65;93.53
65760;BME280;52496;51.082;5.066;2022-11-03T07:54:19;100816.59;;;12.69;93.36
65760;BME280;52496;51.082;5.066;2022-11-03T07:59:44;100818.28;;;12.77;92.92
65760;BME280;52496;51.082;5.066;2022-11-03T08:05:01;100795.38;;;12.81;92.57
65760;BME280;52496;51.082;5.066;2022-11-03T08:07:32;100793.16;;;12.84;91.86
65760;BME280;52496;51.082;5.066;2022-11-03T08:10:06;100791.69;;;12.89;91.70
65760;BME280;52496;51.082;5.066;2022-11-03T08:12:36;100770.66;;;12.92;91.36
65760;BME280;52496;51.082;5.066;2022-11-03T08:15:07;100764.69;;;12.97;91.03
65760;BME280;52496;51.082;5.066;2022-11-03T08:17:38;100758.69;;;13.01;90.43
65760;BME280;52496;51.082;5.066;2022-11-03T08:20:09;100746.31;;;13.07;89.90
65760;BME280;52496;51.082;5.066;2022-11-03T08:22:39;100745.94;;;13.10;89.75
65760;BME280;52496;51.082;5.066;2022-11-03T08:25:10;100749.25;;;13.12;89.81
65760;BME280;52496;51.082;5.066;2022-11-03T08:27:40;100750.47;;;13.16;89.82
65760;BME280;52496;51.082;5.066;2022-11-03T08:30:11;100738.28;;;13.20;89.48
65760;BME280;52496;51.082;5.066;2022-11-03T08:32:42;100740.19;;;13.26;89.25
65760;BME280;52496;51.082;5.066;2022-11-03T08:35:12;100716.25;;;13.31;88.42
65760;BME280;52496;51.082;5.066;2022-11-03T08:37:43;100713.78;;;13.37;88.37
65760;BME280;52496;51.082;5.066;2022-11-03T08:40:13;100705.72;;;13.43;88.26
65760;BME280;52496;51.082;5.066;2022-11-03T08:42:44;100690.63;;;13.49;88.36
65760;BME280;52496;51.082;5.066;2022-11-03T08:45:14;100684.44;;;13.55;87.89
65760;BME280;52496;51.082;5.066;2022-11-03T08:47:45;100680.91;;;13.61;87.08
65760;BME280;52496;51.082;5.066;2022-11-03T08:50:16;100678.22;;;13.68;86.60
65760;BME280;52496;51.082;5.066;2022-11-03T08:52:46;100671.19;;;13.73;86.81
65760;BME280;52496;51.082;5.066;2022-11-03T08:55:17;100661.66;;;13.77;86.72
65760;BME280;52496;51.082;5.066;2022-11-03T08:57:48;100644.69;;;13.84;86.50
65760;BME280;52496;51.082;5.066;2022-11-03T09:00:18;100643.25;;;13.88;85.75
65760;BME280;52496;51.082;5.066;2022-11-03T09:02:49;100634.13;;;13.89;85.29
65760;BME280;52496;51.082;5.066;2022-11-03T09:05:20;100631.84;;;13.92;85.97
65760;BME280;52496;51.082;5.066;2022-11-03T09:07:51;100630.59;;;13.95;85.05
65760;BME280;52496;51.082;5.066;2022-11-03T09:10:21;100635.56;;;13.98;84.92
65760;BME280;52496;51.082;5.066;2022-11-03T09:12:52;100629.94;;;13.99;85.39
65760;BME280;52496;51.082;5.066;2022-11-03T09:15:23;100624.81;;;13.98;85.23
65760;BME280;52496;51.082;5.066;2022-11-03T09:17:53;100615.69;;;13.99;85.47
65760;BME280;52496;51.082;5.066;2022-11-03T09:20:24;100612.00;;;14.00;84.97
65760;BME280;52496;51.082;5.066;2022-11-03T09:22:55;100605.75;;;13.99;85.13
65760;BME280;52496;51.082;5.066;2022-11-03T09:25:25;100607.19;;;14.02;85.24
65760;BME280;52496;51.082;5.066;2022-11-03T09:27:56;100591.31;;;14.00;84.78
65760;BME280;52496;51.082;5.066;2022-11-03T09:30:26;100585.09;;;14.00;84.53
65760;BME280;52496;51.082;5.066;2022-11-03T09:32:58;100579.72;;;14.00;84.54
65760;BME280;52496;51.082;5.066;2022-11-03T09:35:28;100578.06;;;13.99;84.44
65760;BME280;52496;51.082;5.066;2022-11-03T09:37:59;100564.63;;;13.99;84.31
65760;BME280;52496;51.082;5.066;2022-11-03T09:40:29;100574.78;;;13.97;84.70
65760;BME280;52496;51.082;5.066;2022-11-03T09:43:00;100559.66;;;13.96;84.30
65760;BME280;52496;51.082;5.066;2022-11-03T09:45:31;100551.81;;;13.94;84.23
65760;BME280;52496;51.082;5.066;2022-11-03T09:48:01;100556.97;;;13.96;84.15
65760;BME280;52496;51.082;5.066;2022-11-03T09:50:32;100556.53;;;13.99;84.94
65760;BME280;52496;51.082;5.066;2022-11-03T09:53:02;100542.09;;;14.00;83.35
65760;BME280;52496;51.082;5.066;2022-11-03T09:55:33;100541.66;;;14.03;84.23
65760;BME280;52496;51.082;5.066;2022-11-03T09:58:14;100525.28;;;14.05;84.13
65760;BME280;52496;51.082;5.066;2022-11-03T10:00:45;100537.50;;;14.07;83.80
65760;BME280;52496;51.082;5.066;2022-11-03T10:03:17;100529.19;;;14.09;83.81
65760;BME280;52496;51.082;5.066;2022-11-03T10:05:47;100513.06;;;14.09;83.94
65760;BME280;52496;51.082;5.066;2022-11-03T10:10:55;100511.22;;;14.09;83.11
65760;BME280;52496;51.082;5.066;2022-11-03T10:13:33;100511.00;;;14.11;83.38
65760;BME280;52496;51.082;5.066;2022-11-03T10:16:07;100495.25;;;14.14;83.55
65760;BME280;52496;51.082;5.066;2022-11-03T10:18:38;100496.06;;;14.21;82.68
65760;BME280;52496;51.082;5.066;2022-11-03T10:21:14;100493.47;;;14.33;83.31
65760;BME280;52496;51.082;5.066;2022-11-03T10:23:47;100494.19;;;14.47;82.69
65760;BME280;52496;51.082;5.066;2022-11-03T10:26:19;100495.78;;;14.61;82.45
65760;BME280;52496;51.082;5.066;2022-11-03T10:29:06;100501.06;;;14.75;81.08
65760;BME280;52496;51.082;5.066;2022-11-03T10:31:40;100508.84;;;14.83;81.42
65760;BME280;52496;51.082;5.066;2022-11-03T10:34:33;100492.25;;;14.86;80.97
65760;BME280;52496;51.082;5.066;2022-11-03T10:39:44;100491.38;;;14.92;80.32
65760;BME280;52496;51.082;5.066;2022-11-03T10:42:29;100487.19;;;14.96;78.84
65760;BME280;52496;51.082;5.066;2022-11-03T10:45:16;100479.28;;;15.01;79.83
65760;BME280;52496;51.082;5.066;2022-11-03T10:48:01;100483.94;;;15.12;79.98
65760;BME280;52496;51.082;5.066;2022-11-03T10:50:33;100465.38;;;15.23;78.99
65760;BME280;52496;51.082;5.066;2022-11-03T10:53:04;100452.06;;;15.28;78.47
65760;BME280;52496;51.082;5.066;2022-11-03T10:55:35;100451.75;;;15.36;78.50
65760;BME280;52496;51.082;5.066;2022-11-03T10:58:05;100454.97;;;15.45;77.93
65760;BME280;52496;51.082;5.066;2022-11-03T11:00:36;100462.16;;;15.51;78.02
65760;BME280;52496;51.082;5.066;2022-11-03T11:03:10;100449.41;;;15.58;76.97
65760;BME280;52496;51.082;5.066;2022-11-03T11:05:45;100453.88;;;15.64;77.31
65760;BME280;52496;51.082;5.066;2022-11-03T11:08:21;100443.06;;;15.71;76.22
65760;BME280;52496;51.082;5.066;2022-11-03T11:10:52;100432.41;;;15.76;76.91
65760;BME280;52496;51.082;5.066;2022-11-03T11:13:25;100428.69;;;15.77;76.12
65760;BME280;52496;51.082;5.066;2022-11-03T11:16:01;100410.16;;;15.80;75.33
65760;BME280;52496;51.082;5.066;2022-11-03T11:23:45;100388.50;;;15.87;74.68
65760;BME280;52496;51.082;5.066;2022-11-03T11:31:43;100354.16;;;15.94;73.51
65760;BME280;52496;51.082;5.066;2022-11-03T11:50:15;100320.41;;;16.27;71.53
65760;BME280;52496;51.082;5.066;2022-11-03T11:52:52;100328.16;;;16.35;71.56
65760;BME280;52496;51.082;5.066;2022-11-03T11:58:00;100313.00;;;16.46;71.24
65760;BME280;52496;51.082;5.066;2022-11-03T12:00:33;100295.06;;;16.51;71.04
65760;BME280;52496;51.082;5.066;2022-11-03T12:03:04;100291.31;;;16.52;70.46
65760;BME280;52496;51.082;5.066;2022-11-03T12:05:36;100288.72;;;16.58;69.98
65760;BME280;52496;51.082;5.066;2022-11-03T12:08:23;100273.81;;;16.55;69.78
65760;BME280;52496;51.082;5.066;2022-11-03T12:10:59;100270.88;;;16.57;69.59
65760;BME280;52496;51.082;5.066;2022-11-03T12:13:41;100278.50;;;16.60;70.70
65760;BME280;52496;51.082;5.066;2022-11-03T12:19:35;100249.41;;;16.62;69.27
65760;BME280;52496;51.082;5.066;2022-11-03T12:22:37;100246.69;;;16.62;69.08
65760;BME280;52496;51.082;5.066;2022-11-03T12:25:03;100231.78;;;16.71;70.44
65760;BME280;52496;51.082;5.066;2022-11-03T12:30:17;100212.84;;;16.83;69.24
65760;BME280;52496;51.082;5.066;2022-11-03T12:32:48;100203.91;;;16.82;68.58
65760;BME280;52496;51.082;5.066;2022-11-03T12:35:18;100202.28;;;16.81;68.35
65760;BME280;52496;51.082;5.066;2022-11-03T12:37:49;100193.59;;;16.79;68.41
65760;BME280;52496;51.082;5.066;2022-11-03T12:40:19;100199.59;;;16.81;69.27
65760;BME280;52496;51.082;5.066;2022-11-03T12:42:50;100187.03;;;16.75;69.13
65760;BME280;52496;51.082;5.066;2022-11-03T12:45:21;100178.25;;;16.68;69.04
65760;BME280;52496;51.082;5.066;2022-11-03T12:47:51;100171.59;;;16.59;68.66
65760;BME280;52496;51.082;5.066;2022-11-03T12:50:22;100182.63;;;16.57;69.41
65760;BME280;52496;51.082;5.066;2022-11-03T12:52:52;100177.00;;;16.59;70.73
65760;BME280;52496;51.082;5.066;2022-11-03T12:55:23;100168.31;;;16.57;69.65
65760;BME280;52496;51.082;5.066;2022-11-03T12:57:54;100162.25;;;16.49;68.98
65760;BME280;52496;51.082;5.066;2022-11-03T13:00:24;100166.13;;;16.42;71.00
65760;BME280;52496;51.082;5.066;2022-11-03T13:02:56;100161.34;;;16.32;70.50
65760;BME280;52496;51.082;5.066;2022-11-03T13:05:26;100146.59;;;16.23;69.58
65760;BME280;52496;51.082;5.066;2022-11-03T13:07:57;100157.16;;;16.13;71.11
65760;BME280;52496;51.082;5.066;2022-11-03T13:10:27;100155.41;;;16.06;71.30
65760;BME280;52496;51.082;5.066;2022-11-03T13:12:58;100155.78;;;15.98;70.81
65760;BME280;52496;51.082;5.066;2022-11-03T13:15:28;100156.97;;;15.91;71.00
65760;BME280;52496;51.082;5.066;2022-11-03T13:17:59;100156.03;;;15.85;71.88
65760;BME280;52496;51.082;5.066;2022-11-03T13:20:31;100156.41;;;15.77;74.01
65760;BME280;52496;51.082;5.066;2022-11-03T13:23:03;100165.06;;;15.67;75.59
65760;BME280;52496;51.082;5.066;2022-11-03T13:25:34;100155.66;;;15.58;76.17
65760;BME280;52496;51.082;5.066;2022-11-03T13:28:04;100139.03;;;15.49;76.56
65760;BME280;52496;51.082;5.066;2022-11-03T13:30:35;100143.94;;;15.41;78.51
65760;BME280;52496;51.082;5.066;2022-11-03T13:33:06;100155.41;;;15.36;79.63
65760;BME280;52496;51.082;5.066;2022-11-03T13:35:36;100157.41;;;15.29;79.61
65760;BME280;52496;51.082;5.066;2022-11-03T13:38:07;100151.31;;;15.22;80.90
65760;BME280;52496;51.082;5.066;2022-11-03T13:40:38;100145.44;;;15.13;79.77
65760;BME280;52496;51.082;5.066;2022-11-03T13:43:08;100150.31;;;15.04;81.17
65760;BME280;52496;51.082;5.066;2022-11-03T13:45:39;100141.75;;;14.96;81.38
65760;BME280;52496;51.082;5.066;2022-11-03T13:48:09;100134.25;;;14.86;82.49
65760;BME280;52496;51.082;5.066;2022-11-03T13:50:40;100138.31;;;14.77;84.39
65760;BME280;52496;51.082;5.066;2022-11-03T13:53:12;100143.41;;;14.66;85.50
65760;BME280;52496;51.082;5.066;2022-11-03T13:55:44;100137.75;;;14.56;86.04
65760;BME280;52496;51.082;5.066;2022-11-03T13:58:14;100132.06;;;14.46;87.21
65760;BME280;52496;51.082;5.066;2022-11-03T14:00:46;100115.19;;;14.39;88.66
65760;BME280;52496;51.082;5.066;2022-11-03T14:03:16;100097.50;;;14.31;89.68
65760;BME280;52496;51.082;5.066;2022-11-03T14:05:47;100090.09;;;14.27;90.08
65760;BME280;52496;51.082;5.066;2022-11-03T14:08:18;100101.78;;;14.20;91.46
65760;BME280;52496;51.082;5.066;2022-11-03T14:10:48;100090.75;;;14.10;91.97
65760;BME280;52496;51.082;5.066;2022-11-03T14:13:18;100079.25;;;14.03;92.56
65760;BME280;52496;51.082;5.066;2022-11-03T14:15:49;100080.97;;;13.97;93.44
65760;BME280;52496;51.082;5.066;2022-11-03T14:18:19;100074.19;;;13.95;93.76
65760;BME280;52496;51.082;5.066;2022-11-03T14:20:50;100064.94;;;13.91;94.48
65760;BME280;52496;51.082;5.066;2022-11-03T14:23:20;100055.09;;;13.85;95.20
65760;BME280;52496;51.082;5.066;2022-11-03T14:25:51;100046.41;;;13.83;96.26
65760;BME280;52496;51.082;5.066;2022-11-03T14:28:23;100033.19;;;13.81;96.42
65760;BME280;52496;51.082;5.066;2022-11-03T14:30:54;100031.78;;;13.79;97.58
65760;BME280;52496;51.082;5.066;2022-11-03T14:33:28;100033.88;;;13.76;96.81